Maldives Meteorological Service

TAFS

Station TAF
VRMM
VRMM 231100Z 2312/2418 07016KT 9000 SCT018TCU TEMPO 2312/2318 6000 -TSRA SCT017CB=
VRMH
VRMH 231100Z 2312/2418 07012KT 9000 FEW018TCU TEMPO 2312/2318 7000 -TSRA SCT017CB=
VRMK
VRMK 231100Z 2312/2412 04008KT 9999 SCT018TCU TEMPO 2312/2318 6000 -TSRA SCT017CB=
VRMT
VRMT 231100Z 2312/2412 06007KT 9999 FEW018TCU TEMPO 2312/2318 6000 -TSRA SCT017CB=
VRMG
VRMG 231100Z 2312/2418 07008KT 9999 FEW018TCU TEMPO 2312/2318 7000 -TSRA SCT017CB=